Terminal Aerodrome Forecast
Issued by NWS Green Bay, WI

Home | Current Version | Previous Version | Graphics & Text | Print | Product List | Glossary On
Versions: 1 2 3 4 5 6 7 8 9 10 11 12 13 14 15 16 17 18 19 20 21 22 23 24 25 26 27 28 29 30 31 32 33 34 35 36 37 38 39 40 41 42 43 44 45 46 47 48
000
FTUS43 KGRB 040957 AAB
TAFGRB
TAF AMD
KGRB 040957Z 0410/0506 19004KT P6SM BKN035 OVC070
     FM041400 17005KT P6SM OVC020
      TEMPO 0415/0416 3SM -SN OVC012
     FM041600 16007KT 1 1/2SM -SN OVC008
      TEMPO 0418/0422 3/4SM -SN OVC004
     FM050100 21007KT 3SM -SN OVC012
     FM050300 24008KT P6SM SCT012 OVC020=

USA.gov is the U.S. government's official web portal to all federal, state and local government web resources and services.